createdAt,value
2019-05-22T00:01:42.878Z,59.00
2019-05-22T00:04:16.774Z,60.52
2019-05-22T00:06:48.346Z,58.60
2019-05-22T00:09:19.586Z,56.28
2019-05-22T00:11:49.880Z,61.30
2019-05-22T00:14:20.544Z,56.77
2019-05-22T00:16:50.330Z,59.30
2019-05-22T00:19:20.742Z,58.70
2019-05-22T00:21:52.133Z,56.02
2019-05-22T00:24:23.172Z,58.55
2019-05-22T00:26:54.671Z,57.23
2019-05-22T00:29:25.402Z,57.43
2019-05-22T00:31:56.081Z,58.30
2019-05-22T00:34:26.242Z,56.48
2019-05-22T00:36:56.623Z,55.30
2019-05-22T00:39:27.988Z,59.65
2019-05-22T00:41:58.310Z,60.28
2019-05-22T00:44:29.352Z,61.25
2019-05-22T00:47:01.114Z,60.67
2019-05-22T00:49:33.281Z,62.95
2019-05-22T00:52:04.613Z,56.65
2019-05-22T00:54:40.176Z,58.42
2019-05-22T00:57:23.608Z,56.63
2019-05-22T00:59:55.366Z,61.05
2019-05-22T01:02:31.017Z,56.95
2019-05-22T01:05:00.935Z,57.03
2019-05-22T01:07:37.401Z,59.35
2019-05-22T01:10:11.333Z,60.98
2019-05-22T01:12:43.178Z,57.30
2019-05-22T01:15:15.879Z,60.67
2019-05-22T01:17:47.299Z,61.73
2019-05-22T01:20:18.843Z,56.98
2019-05-22T01:22:49.282Z,58.38
2019-05-22T01:25:24.212Z,61.50
2019-05-22T01:27:55.565Z,61.08
2019-05-22T01:30:33.670Z,64.07
2019-05-22T01:33:06.480Z,61.80
2019-05-22T01:35:40.873Z,59.05
2019-05-22T01:38:12.939Z,58.78
2019-05-22T01:40:50.431Z,57.62
2019-05-22T01:43:27.629Z,59.95
2019-05-22T01:45:59.330Z,63.13
2019-05-22T01:48:40.759Z,62.25
2019-05-22T01:51:11.493Z,64.10
2019-05-22T01:53:42.434Z,67.20
2019-05-22T01:56:13.558Z,65.00
2019-05-22T01:58:45.359Z,63.05
2019-05-22T02:01:23.890Z,61.63
2019-05-22T02:03:56.021Z,62.33
2019-05-22T02:06:26.445Z,62.33
2019-05-22T02:09:03.837Z,59.93
2019-05-22T02:11:33.902Z,56.55
2019-05-22T02:14:10.221Z,57.13
2019-05-22T02:16:56.055Z,58.42
2019-05-22T02:19:16.701Z,57.17
2019-05-22T02:21:47.856Z,56.73
2019-05-22T02:24:19.096Z,57.13
2019-05-22T02:26:49.116Z,57.75
2019-05-22T02:29:20.465Z,57.48
2019-05-22T02:31:55.000Z,56.33
2019-05-22T02:34:22.854Z,58.90
2019-05-22T02:36:53.954Z,54.15
2019-05-22T02:39:30.669Z,57.10
2019-05-22T02:42:15.546Z,55.98
2019-05-22T02:44:45.926Z,52.15
2019-05-22T02:47:20.479Z,52.17
2019-05-22T02:49:50.397Z,57.23
2019-05-22T02:52:22.266Z,48.92
2019-05-22T02:54:51.972Z,48.30
2019-05-22T02:57:22.083Z,52.10
2019-05-22T02:59:52.321Z,49.98
2019-05-22T03:02:23.664Z,55.88
2019-05-22T03:04:57.615Z,56.48
2019-05-22T03:07:30.508Z,65.92
2019-05-22T03:10:01.923Z,68.78
2019-05-22T03:12:33.355Z,67.67
2019-05-22T03:15:04.297Z,67.27
2019-05-22T03:17:35.281Z,65.87
2019-05-22T03:20:17.442Z,69.55
2019-05-22T03:23:03.230Z,66.40
2019-05-22T03:25:33.535Z,67.55
2019-05-22T03:28:06.867Z,67.58
2019-05-22T03:30:40.249Z,63.63
2019-05-22T03:33:10.547Z,57.23
2019-05-22T03:35:47.271Z,61.02
2019-05-22T03:38:19.207Z,56.45
2019-05-22T03:40:52.452Z,59.18
2019-05-22T03:43:24.957Z,61.13
2019-05-22T03:45:56.462Z,56.28
2019-05-22T03:48:27.979Z,60.23
2019-05-22T03:51:00.865Z,56.45
2019-05-22T03:53:30.794Z,57.85
2019-05-22T03:56:01.107Z,59.05
2019-05-22T03:58:30.712Z,58.35
2019-05-22T04:01:03.599Z,58.65
2019-05-22T04:03:35.358Z,59.93
2019-05-22T04:06:06.639Z,60.00
2019-05-22T04:08:37.380Z,57.40
2019-05-22T04:11:08.583Z,56.37
2019-05-22T04:13:38.964Z,59.53
2019-05-22T04:16:10.572Z,56.60
2019-05-22T04:18:40.920Z,57.53
2019-05-22T04:21:10.698Z,54.63
2019-05-22T04:23:40.718Z,57.20
2019-05-22T04:26:12.068Z,60.88
2019-05-22T04:28:51.159Z,60.38
2019-05-22T04:31:30.740Z,56.50
2019-05-22T04:34:00.940Z,55.08
2019-05-22T04:36:30.935Z,59.03
2019-05-22T04:39:02.313Z,55.88
2019-05-22T04:41:33.367Z,57.90
2019-05-22T04:44:05.229Z,61.05
2019-05-22T04:46:35.042Z,56.28
2019-05-22T04:49:05.162Z,59.00
2019-05-22T04:51:35.081Z,55.83
2019-05-22T04:54:05.082Z,58.68
2019-05-22T04:56:34.805Z,57.00
2019-05-22T04:59:05.652Z,56.15
2019-05-22T05:01:36.059Z,54.33
2019-05-22T05:04:07.315Z,62.03
2019-05-22T05:06:37.848Z,58.50
2019-05-22T05:09:10.874Z,57.25
2019-05-22T05:11:42.692Z,58.13
2019-05-22T05:14:12.503Z,60.38
2019-05-22T05:16:42.316Z,59.35
2019-05-22T05:19:12.299Z,58.52
2019-05-22T05:21:43.578Z,61.15
2019-05-22T05:24:13.293Z,62.62
2019-05-22T05:26:43.710Z,60.05
2019-05-22T05:29:25.102Z,59.70
2019-05-22T05:31:55.419Z,58.80
2019-05-22T05:34:46.421Z,56.00
2019-05-22T05:37:18.604Z,59.98
2019-05-22T05:43:07.488Z,63.87
2019-05-22T05:45:39.653Z,63.20
2019-05-22T05:48:14.668Z,60.38
2019-05-22T05:51:06.333Z,61.85
2019-05-22T05:53:58.623Z,60.08
2019-05-22T05:56:31.947Z,56.53
2019-05-22T05:59:04.913Z,57.78
2019-05-22T06:01:36.649Z,64.05
2019-05-22T06:04:06.584Z,53.48
2019-05-22T06:06:41.866Z,61.55
2019-05-22T06:09:14.837Z,62.15
2019-05-22T06:11:48.885Z,56.25
2019-05-22T06:14:30.304Z,58.90
2019-05-22T06:17:07.731Z,57.53
2019-05-22T06:19:41.196Z,62.75
2019-05-22T06:22:12.544Z,53.45
2019-05-22T06:24:56.366Z,51.92
2019-05-22T06:27:31.509Z,55.03
2019-05-22T06:30:04.367Z,58.35
2019-05-22T06:32:57.895Z,60.35
2019-05-22T06:35:32.014Z,62.23
2019-05-22T06:38:05.206Z,61.98
2019-05-22T06:40:35.589Z,61.75
2019-05-22T06:43:25.047Z,65.55
2019-05-22T06:45:55.404Z,66.72
2019-05-22T06:48:25.208Z,71.72
2019-05-22T06:50:55.178Z,68.02
2019-05-22T06:53:25.136Z,66.62
2019-05-22T06:55:54.952Z,67.27
2019-05-22T06:58:25.148Z,65.75
2019-05-22T07:00:54.799Z,71.50
2019-05-22T07:03:24.929Z,65.42
2019-05-22T07:05:54.705Z,62.85
2019-05-22T07:08:24.443Z,62.38
2019-05-22T07:10:54.040Z,64.95
2019-05-22T07:13:23.959Z,63.33
2019-05-22T07:15:54.384Z,61.88
2019-05-22T07:18:26.690Z,63.20
2019-05-22T07:20:56.989Z,63.68
2019-05-22T07:23:27.668Z,67.27
2019-05-22T07:25:58.868Z,62.73
2019-05-22T07:28:29.149Z,59.65
2019-05-22T07:30:59.389Z,63.35
2019-05-22T07:33:29.320Z,60.67
2019-05-22T07:36:09.968Z,60.58
2019-05-22T07:38:30.583Z,62.62
2019-05-22T07:41:00.601Z,59.98
2019-05-22T07:43:30.414Z,62.50
2019-05-22T07:46:00.228Z,66.10
2019-05-22T07:48:31.613Z,64.90
2019-05-22T07:51:04.436Z,56.85
2019-05-22T07:53:34.164Z,60.33
2019-05-22T07:56:08.688Z,60.15
2019-05-22T07:58:38.649Z,63.33
2019-05-22T08:01:09.660Z,60.17
2019-05-22T08:03:40.804Z,63.73
2019-05-22T08:06:11.788Z,61.75
2019-05-22T08:08:43.765Z,59.48
2019-05-22T08:11:14.714Z,58.52
2019-05-22T08:13:45.099Z,61.53
2019-05-22T08:16:16.031Z,57.15
2019-05-22T08:18:46.158Z,56.02
2019-05-22T08:21:15.837Z,59.53
2019-05-22T08:23:45.748Z,59.67
2019-05-22T08:26:16.831Z,59.90
2019-05-22T08:28:47.113Z,55.33
2019-05-22T08:31:18.241Z,56.63
2019-05-22T08:33:48.157Z,57.45
2019-05-22T08:36:18.114Z,52.15
2019-05-22T08:38:47.904Z,57.93
2019-05-22T08:41:20.922Z,55.80
2019-05-22T08:44:13.875Z,52.05
2019-05-22T08:46:23.134Z,53.33
2019-05-22T08:48:54.913Z,57.48
2019-05-22T08:51:24.952Z,53.23
2019-05-22T08:57:00.511Z,49.80
2019-05-22T08:59:30.565Z,46.65
2019-05-22T09:02:00.526Z,37.55
2019-05-22T09:04:30.220Z,44.25
2019-05-22T09:07:00.385Z,40.88
2019-05-22T09:09:30.022Z,41.28
2019-05-22T09:11:59.880Z,44.15
2019-05-22T09:14:29.360Z,34.85
2019-05-22T09:16:59.222Z,35.23
2019-05-22T09:19:29.327Z,32.63
2019-05-22T09:21:59.059Z,31.77
2019-05-22T09:24:28.999Z,30.35
2019-05-22T09:27:02.601Z,26.90
2019-05-22T09:29:30.472Z,23.42
2019-05-22T09:32:00.506Z,24.60
2019-05-22T09:34:30.173Z,26.93
2019-05-22T09:36:59.980Z,28.35
2019-05-22T09:39:29.924Z,23.00
2019-05-22T09:41:59.715Z,25.55
2019-05-22T09:44:29.374Z,25.25
2019-05-22T09:46:59.257Z,23.00
2019-05-22T09:49:29.655Z,23.42
2019-05-22T09:51:59.537Z,23.57
2019-05-22T09:54:31.314Z,23.87
2019-05-22T09:57:01.282Z,26.23
2019-05-22T09:59:30.857Z,20.00
2019-05-22T10:02:00.903Z,16.95
2019-05-22T10:04:31.196Z,15.95
2019-05-22T10:07:00.869Z,17.30
2019-05-22T10:09:31.185Z,13.20
2019-05-22T10:12:01.240Z,11.53
2019-05-22T10:14:30.946Z,12.75
2019-05-22T10:17:01.180Z,14.87
2019-05-22T10:19:31.610Z,16.30
2019-05-22T10:22:02.135Z,10.20
2019-05-22T10:24:31.958Z,11.83
2019-05-22T10:27:02.082Z,11.88
2019-05-22T10:29:32.494Z,11.43
2019-05-22T10:32:03.308Z,12.18
2019-05-22T10:34:33.417Z,12.07
2019-05-22T10:37:04.091Z,10.95
2019-05-22T10:39:34.412Z,13.25
2019-05-22T10:42:03.974Z,12.33
2019-05-22T10:44:33.991Z,12.47
2019-05-22T10:47:04.564Z,9.83
2019-05-22T10:49:34.621Z,12.65
2019-05-22T10:52:05.447Z,10.55
2019-05-22T10:54:35.133Z,10.82
2019-05-22T10:57:05.970Z,12.93
2019-05-22T10:59:35.602Z,11.60
2019-05-22T11:02:06.516Z,16.27
2019-05-22T11:04:37.351Z,12.28
2019-05-22T11:07:08.087Z,13.48
2019-05-22T11:09:38.863Z,13.08
2019-05-22T11:12:10.004Z,14.05
2019-05-22T11:14:39.979Z,14.43
2019-05-22T11:17:11.454Z,12.88
2019-05-22T11:19:41.619Z,13.15
2019-05-22T11:22:13.500Z,13.98
2019-05-22T11:24:43.261Z,13.62
2019-05-22T11:27:13.681Z,14.18
2019-05-22T11:29:43.576Z,12.47
2019-05-22T11:32:15.296Z,13.98
2019-05-22T11:34:45.088Z,12.05
2019-05-22T11:37:14.986Z,14.43
2019-05-22T11:39:45.462Z,14.03
2019-05-22T11:42:15.303Z,18.17
2019-05-22T11:44:44.898Z,15.08
2019-05-22T11:47:15.181Z,17.70
2019-05-22T11:49:45.184Z,17.32
2019-05-22T11:52:15.595Z,13.93
2019-05-22T11:54:45.791Z,13.70
2019-05-22T11:57:15.988Z,19.27
2019-05-22T11:59:46.346Z,16.35
2019-05-22T12:02:16.045Z,15.85
2019-05-22T12:04:48.523Z,17.67
2019-05-22T12:07:17.117Z,14.63
2019-05-22T12:09:47.529Z,14.15
2019-05-22T12:12:17.854Z,15.90
2019-05-22T12:14:47.774Z,13.45
2019-05-22T12:17:34.787Z,17.60
2019-05-22T12:19:49.581Z,14.50
2019-05-22T12:22:20.021Z,15.08
2019-05-22T12:24:50.202Z,14.50
2019-05-22T12:27:20.049Z,17.90
2019-05-22T12:29:50.136Z,16.20
2019-05-22T12:32:20.537Z,16.50
2019-05-22T12:34:50.504Z,15.58
2019-05-22T12:37:20.389Z,16.67
2019-05-22T12:39:50.589Z,23.30
2019-05-22T12:42:21.749Z,16.35
2019-05-22T12:44:51.330Z,17.25
2019-05-22T12:47:22.126Z,16.15
2019-05-22T12:49:52.651Z,14.83
2019-05-22T12:52:22.658Z,18.27
2019-05-22T12:54:53.452Z,18.30
2019-05-22T12:57:23.994Z,15.63
2019-05-22T12:59:53.570Z,16.87
2019-05-22T13:02:24.324Z,19.67
2019-05-22T13:04:54.386Z,19.45
2019-05-22T13:07:25.278Z,13.03
2019-05-22T13:09:55.208Z,16.37
2019-05-22T13:12:25.520Z,14.13
2019-05-22T13:15:09.183Z,13.78
2019-05-22T13:17:28.677Z,20.77
2019-05-22T13:19:58.465Z,18.57
2019-05-22T13:22:30.334Z,13.98
2019-05-22T13:25:01.985Z,17.00
2019-05-22T13:27:32.922Z,17.37
2019-05-22T13:30:05.531Z,13.83
2019-05-22T13:32:36.128Z,16.87
2019-05-22T13:35:07.831Z,15.30
2019-05-22T13:37:37.529Z,15.15
2019-05-22T13:40:07.653Z,16.85
2019-05-22T13:42:37.466Z,15.65
2019-05-22T13:45:07.350Z,17.60
2019-05-22T13:47:37.622Z,14.70
2019-05-22T13:50:09.248Z,13.43
2019-05-22T13:52:39.532Z,14.65
2019-05-22T13:55:10.830Z,13.68
2019-05-22T13:57:41.450Z,13.32
2019-05-22T14:00:14.213Z,14.90
2019-05-22T14:02:43.813Z,13.08
2019-05-22T14:05:15.411Z,13.78
2019-05-22T14:07:46.005Z,11.25
2019-05-22T14:10:16.704Z,11.63
2019-05-22T14:12:46.969Z,10.93
2019-05-22T14:15:17.763Z,12.50
2019-05-22T14:17:47.604Z,11.73
2019-05-22T14:20:18.378Z,9.65
2019-05-22T14:22:48.254Z,9.48
2019-05-22T14:25:19.889Z,11.90
2019-05-22T14:27:49.628Z,13.38
2019-05-22T14:30:20.307Z,12.43
2019-05-22T14:32:50.170Z,13.60
2019-05-22T14:35:20.257Z,12.53
2019-05-22T14:37:50.441Z,13.50
2019-05-22T14:40:20.604Z,18.75
2019-05-22T14:42:50.378Z,12.23
2019-05-22T14:45:20.277Z,11.68
2019-05-22T14:47:49.965Z,10.70
2019-05-22T14:50:21.401Z,11.40
2019-05-22T14:52:51.787Z,10.10
2019-05-22T14:55:22.380Z,11.60
2019-05-22T14:57:54.461Z,16.82
2019-05-22T15:00:24.670Z,11.22
2019-05-22T15:02:58.002Z,11.50
2019-05-22T15:05:27.011Z,12.93
2019-05-22T15:07:56.748Z,12.00
2019-05-22T15:10:27.906Z,11.43
2019-05-22T15:12:57.699Z,10.35
2019-05-22T15:15:27.695Z,15.10
2019-05-22T15:17:57.693Z,10.40
2019-05-22T15:20:29.210Z,11.08
2019-05-22T15:22:58.867Z,10.13
2019-05-22T15:25:29.500Z,13.55
2019-05-22T15:28:00.282Z,12.28
2019-05-22T15:30:30.680Z,12.23
2019-05-22T15:33:00.521Z,11.28
2019-05-22T15:35:30.426Z,12.25
2019-05-22T15:38:00.632Z,9.93
2019-05-22T15:40:30.438Z,11.43
2019-05-22T15:43:00.943Z,11.60
2019-05-22T15:45:32.353Z,9.68
2019-05-22T15:48:06.108Z,15.83
2019-05-22T15:50:37.344Z,13.88
2019-05-22T15:53:13.220Z,18.20
2019-05-22T15:55:42.686Z,11.80
2019-05-22T15:58:15.425Z,15.85
2019-05-22T16:00:47.713Z,11.08
2019-05-22T16:03:21.152Z,12.65
2019-05-22T16:05:53.689Z,11.60
2019-05-22T16:08:23.597Z,14.13
2019-05-22T16:10:59.672Z,12.05
2019-05-22T16:13:31.840Z,11.93
2019-05-22T16:16:04.050Z,13.70
2019-05-22T16:18:37.324Z,15.38
2019-05-22T16:21:10.312Z,11.65
2019-05-22T16:23:40.951Z,12.05
2019-05-22T16:26:11.801Z,10.48
2019-05-22T16:28:44.435Z,14.70
2019-05-22T16:31:14.847Z,11.78
2019-05-22T16:33:47.254Z,15.10
2019-05-22T16:36:18.768Z,15.13
2019-05-22T16:38:49.973Z,11.08
2019-05-22T16:41:20.803Z,16.10
2019-05-22T16:43:51.197Z,14.03
2019-05-22T16:46:22.405Z,10.65
2019-05-22T16:48:53.003Z,12.60
2019-05-22T16:51:23.301Z,13.55
2019-05-22T16:53:55.879Z,11.55
2019-05-22T16:56:27.864Z,12.65
2019-05-22T16:58:57.854Z,14.40
2019-05-22T17:01:28.686Z,12.93
2019-05-22T17:04:01.340Z,13.78
2019-05-22T17:06:31.818Z,11.48
2019-05-22T17:09:03.893Z,12.25
2019-05-22T17:11:37.366Z,12.07
2019-05-22T17:14:08.814Z,13.60
2019-05-22T17:16:39.724Z,12.33
2019-05-22T17:19:25.631Z,10.32
2019-05-22T17:21:41.491Z,12.13
2019-05-22T17:24:13.873Z,15.20
2019-05-22T17:26:44.767Z,11.55
2019-05-22T17:29:14.960Z,12.33
2019-05-22T17:31:46.069Z,8.83
2019-05-22T17:34:31.956Z,11.95
2019-05-22T17:37:06.339Z,11.93
2019-05-22T17:39:38.239Z,8.45
2019-05-22T17:42:10.607Z,10.50
2019-05-22T17:44:45.994Z,12.78
2019-05-22T17:47:17.397Z,13.00
2019-05-22T17:49:48.754Z,8.40
2019-05-22T17:52:21.060Z,11.65
2019-05-22T17:54:52.770Z,11.83
2019-05-22T17:57:23.344Z,15.28
2019-05-22T17:59:53.648Z,14.83
2019-05-22T18:02:25.194Z,14.38
2019-05-22T18:04:56.277Z,11.40
2019-05-22T18:07:26.828Z,12.47
2019-05-22T18:09:56.439Z,14.15
2019-05-22T18:12:27.733Z,11.85
2019-05-22T18:14:57.475Z,13.03
2019-05-22T18:17:27.447Z,11.15
2019-05-22T18:19:57.227Z,10.72
2019-05-22T18:22:26.820Z,11.40
2019-05-22T18:24:56.744Z,12.63
2019-05-22T18:27:26.755Z,13.98
2019-05-22T18:29:56.453Z,14.45
2019-05-22T18:32:26.355Z,12.07
2019-05-22T18:34:55.889Z,11.78
2019-05-22T18:37:26.624Z,10.38
2019-05-22T18:39:56.098Z,14.20
2019-05-22T18:42:25.902Z,9.78
2019-05-22T18:44:55.534Z,10.18
2019-05-22T18:47:25.578Z,11.78
2019-05-22T18:49:55.247Z,12.00
2019-05-22T18:52:39.886Z,7.30
2019-05-22T18:54:56.828Z,9.70
2019-05-22T18:57:26.632Z,11.48
2019-05-22T19:00:02.677Z,7.35
2019-05-22T19:02:27.863Z,7.35
2019-05-22T19:04:57.505Z,9.93
2019-05-22T19:07:27.338Z,7.28
2019-05-22T19:09:57.125Z,7.25
2019-05-22T19:12:27.044Z,6.70
2019-05-22T19:14:56.855Z,6.37
2019-05-22T19:17:27.154Z,9.63
2019-05-22T19:19:56.938Z,11.22
2019-05-22T19:22:27.218Z,8.10
2019-05-22T19:24:56.928Z,7.60
2019-05-22T19:27:26.658Z,7.87
2019-05-22T19:29:56.584Z,8.85
2019-05-22T19:32:26.257Z,7.37
2019-05-22T19:34:55.979Z,10.68
2019-05-22T19:37:25.788Z,6.87
2019-05-22T19:39:56.143Z,12.40
2019-05-22T19:42:26.068Z,8.15
2019-05-22T19:44:55.879Z,8.60
2019-05-22T19:47:25.768Z,10.43
2019-05-22T19:49:55.674Z,12.33
2019-05-22T19:52:40.370Z,11.43
2019-05-22T19:54:57.757Z,14.00
2019-05-22T19:57:27.572Z,11.50
2019-05-22T19:59:57.204Z,12.25
2019-05-22T20:02:27.341Z,11.70
2019-05-22T20:04:57.860Z,12.35
2019-05-22T20:07:28.667Z,13.00
2019-05-22T20:09:58.887Z,11.00
2019-05-22T20:12:29.661Z,13.22
2019-05-22T20:14:59.569Z,11.05
2019-05-22T20:17:29.652Z,12.35
2019-05-22T20:19:59.575Z,11.18
2019-05-22T20:22:29.989Z,14.63
2019-05-22T20:25:00.153Z,12.28
2019-05-22T20:27:29.958Z,13.68
2019-05-22T20:30:00.348Z,13.40
2019-05-22T20:32:32.112Z,17.62
2019-05-22T20:35:01.933Z,15.70
2019-05-22T20:37:33.503Z,18.90
2019-05-22T20:40:04.210Z,16.70
2019-05-22T20:42:34.259Z,14.70
2019-05-22T20:45:06.400Z,15.48
2019-05-22T20:47:42.063Z,20.43
2019-05-22T20:50:12.734Z,15.40
2019-05-22T20:52:44.675Z,19.80
2019-05-22T20:55:16.531Z,18.23
2019-05-22T20:57:48.011Z,15.23
2019-05-22T21:00:20.245Z,15.45
2019-05-22T21:02:53.534Z,15.98
2019-05-22T21:05:25.403Z,16.97
2019-05-22T21:07:58.571Z,17.07
2019-05-22T21:10:30.227Z,16.25
2019-05-22T21:13:00.834Z,16.80
2019-05-22T21:15:31.419Z,19.55
2019-05-22T21:18:03.188Z,17.17
2019-05-22T21:20:34.484Z,18.95
2019-05-22T21:23:05.092Z,19.77
2019-05-22T21:25:34.802Z,20.55
2019-05-22T21:28:05.781Z,21.45
2019-05-22T21:30:38.794Z,19.02
2019-05-22T21:33:10.141Z,19.37
2019-05-22T21:35:40.642Z,20.72
2019-05-22T21:38:11.636Z,19.85
2019-05-22T21:40:41.745Z,19.32
2019-05-22T21:43:12.063Z,22.13
2019-05-22T21:45:41.882Z,21.33
2019-05-22T21:48:11.646Z,20.52
2019-05-22T21:50:41.616Z,21.55
2019-05-22T21:53:12.675Z,21.07
2019-05-22T21:55:45.622Z,22.62
2019-05-22T21:58:14.460Z,23.70
2019-05-22T22:00:48.666Z,25.02
2019-05-22T22:03:22.134Z,24.70
2019-05-22T22:05:51.805Z,26.45
2019-05-22T22:08:22.091Z,23.15
2019-05-22T22:10:51.742Z,25.15
2019-05-22T22:13:21.239Z,24.50
2019-05-22T22:15:51.600Z,25.43
2019-05-22T22:18:24.549Z,25.35
2019-05-22T22:20:53.433Z,28.90
2019-05-22T22:23:23.106Z,27.10
2019-05-22T22:25:53.504Z,24.63
2019-05-22T22:28:25.205Z,28.05
2019-05-22T22:30:57.749Z,27.82
2019-05-22T22:33:31.371Z,31.25
2019-05-22T22:36:02.369Z,34.75
2019-05-22T22:38:33.362Z,27.67
2019-05-22T22:41:04.951Z,28.67
2019-05-22T22:43:37.913Z,25.92
2019-05-22T22:46:24.136Z,28.17
2019-05-22T22:48:57.257Z,28.32
2019-05-22T22:51:27.408Z,27.40
2019-05-22T22:53:57.707Z,25.65
2019-05-22T22:56:29.135Z,29.67
2019-05-22T22:58:59.474Z,31.37
2019-05-22T23:01:31.090Z,32.67
2019-05-22T23:04:03.529Z,30.37
2019-05-22T23:06:36.040Z,27.37
2019-05-22T23:09:07.272Z,28.90
2019-05-22T23:11:39.486Z,30.02
2019-05-22T23:14:10.189Z,27.07
2019-05-22T23:16:40.968Z,27.82
2019-05-22T23:19:17.203Z,28.92
2019-05-22T23:21:48.706Z,28.73
2019-05-22T23:24:20.040Z,27.93
2019-05-22T23:26:50.784Z,30.37
2019-05-22T23:29:21.230Z,27.00
2019-05-22T23:31:51.341Z,27.58
2019-05-22T23:34:20.984Z,30.05
2019-05-22T23:36:51.015Z,30.00
2019-05-22T23:39:21.628Z,30.05
2019-05-22T23:41:55.712Z,28.30
2019-05-22T23:44:25.303Z,28.98
2019-05-22T23:46:55.899Z,26.45
2019-05-22T23:49:26.330Z,31.30
2019-05-22T23:51:55.930Z,31.17
2019-05-22T23:54:25.913Z,29.40
2019-05-22T23:56:57.486Z,25.80
2019-05-22T23:59:28.267Z,27.95
